createdAt,value
2022-12-17T00:02:32.276Z,97375.06
2022-12-17T00:05:17.627Z,97370.31
2022-12-17T00:08:02.983Z,97370.22
2022-12-17T00:10:47.810Z,97372.38
2022-12-17T00:13:40.937Z,97383.69
2022-12-17T00:16:28.207Z,97384.22
2022-12-17T00:19:13.713Z,97384.47
2022-12-17T00:21:58.526Z,97395.75
2022-12-17T00:24:43.810Z,97394.94
2022-12-17T00:27:28.907Z,97401.59
2022-12-17T00:30:16.306Z,97394.00
2022-12-17T00:33:01.770Z,97396.41
2022-12-17T00:35:46.875Z,97398.91
2022-12-17T00:38:38.429Z,97404.06
2022-12-17T00:41:23.585Z,97405.84
2022-12-17T00:44:08.522Z,97409.50
2022-12-17T00:46:53.491Z,97420.41
2022-12-17T00:49:38.382Z,97418.84
2022-12-17T00:52:25.710Z,97425.66
2022-12-17T00:55:14.233Z,97433.56
2022-12-17T00:57:59.195Z,97433.34
2022-12-17T01:00:46.890Z,97438.44
2022-12-17T01:03:39.785Z,97441.03
2022-12-17T01:06:25.451Z,97453.13
2022-12-17T01:09:12.896Z,97451.66
2022-12-17T01:11:58.322Z,97457.44
2022-12-17T01:14:44.678Z,97462.47
2022-12-17T01:17:30.693Z,97465.94
2022-12-17T01:20:16.437Z,97468.84
2022-12-17T01:23:04.292Z,97479.06
2022-12-17T01:25:49.359Z,97469.72
2022-12-17T01:28:40.781Z,97481.41
2022-12-17T01:31:29.159Z,97479.72
2022-12-17T01:34:17.892Z,97483.09
2022-12-17T01:37:03.126Z,97489.44
2022-12-17T01:39:47.872Z,97491.41
2022-12-17T01:42:33.373Z,97487.63
2022-12-17T01:45:18.465Z,97491.03
2022-12-17T01:48:08.890Z,97501.69
2022-12-17T01:50:57.517Z,97508.25
2022-12-17T01:53:49.959Z,97510.06
2022-12-17T01:56:52.915Z,97509.00
2022-12-17T01:59:54.102Z,97515.88
2022-12-17T02:02:39.616Z,97519.53
2022-12-17T02:05:25.295Z,97522.13
2022-12-17T02:08:36.938Z,97519.91
2022-12-17T02:11:34.222Z,97527.66
2022-12-17T02:14:40.766Z,97533.66
2022-12-17T02:17:30.666Z,97533.94
2022-12-17T02:20:48.603Z,97547.88
2022-12-17T02:23:51.876Z,97536.00
2022-12-17T02:26:54.842Z,97541.22
2022-12-17T02:29:42.748Z,97542.06
2022-12-17T02:32:30.860Z,97546.47
2022-12-17T02:35:19.700Z,97543.91
2022-12-17T02:38:11.542Z,97545.69
2022-12-17T02:40:57.437Z,97555.75
2022-12-17T02:43:45.538Z,97555.97
2022-12-17T02:46:31.147Z,97562.56
2022-12-17T02:49:16.563Z,97565.00
2022-12-17T02:52:02.059Z,97568.53
2022-12-17T02:54:53.017Z,97559.53
2022-12-17T02:57:43.605Z,97569.63
2022-12-17T03:00:29.639Z,97569.56
2022-12-17T03:03:14.875Z,97574.72
2022-12-17T03:05:59.773Z,97573.75
2022-12-17T03:08:44.836Z,97579.59
2022-12-17T03:11:29.782Z,97581.66
2022-12-17T03:14:17.898Z,97593.09
2022-12-17T03:17:03.121Z,97589.03
2022-12-17T03:19:48.489Z,97594.16
2022-12-17T03:22:33.911Z,97589.44
2022-12-17T03:25:18.850Z,97609.03
2022-12-17T03:28:03.622Z,97609.44
2022-12-17T03:30:49.331Z,97614.28
2022-12-17T03:33:34.648Z,97620.78
2022-12-17T03:36:19.694Z,97614.94
2022-12-17T03:39:04.487Z,97614.78
2022-12-17T03:41:51.277Z,97621.84
2022-12-17T03:44:36.209Z,97621.97
2022-12-17T03:47:23.564Z,97618.59
2022-12-17T03:50:08.520Z,97625.34
2022-12-17T03:52:53.380Z,97635.72
2022-12-17T03:55:38.315Z,97639.06
2022-12-17T03:58:23.146Z,97643.28
2022-12-17T04:01:08.009Z,97653.06
2022-12-17T04:03:53.221Z,97659.72
2022-12-17T04:06:38.019Z,97670.06
2022-12-17T04:09:23.355Z,97671.75
2022-12-17T04:12:08.133Z,97674.44
2022-12-17T04:14:52.960Z,97667.41
2022-12-17T04:17:37.753Z,97670.19
2022-12-17T04:20:23.622Z,97677.19
2022-12-17T04:23:08.753Z,97674.69
2022-12-17T04:25:53.622Z,97672.41
2022-12-17T04:28:38.494Z,97667.25
2022-12-17T04:31:23.723Z,97689.13
2022-12-17T04:34:28.199Z,97686.91
2022-12-17T04:37:13.645Z,97680.06
2022-12-17T04:39:58.232Z,97694.56
2022-12-17T04:42:43.156Z,97690.09
2022-12-17T04:45:28.388Z,97691.09
2022-12-17T04:48:25.447Z,97706.59
2022-12-17T04:51:11.309Z,97707.66
2022-12-17T04:53:56.125Z,97718.81
2022-12-17T04:56:41.608Z,97720.75
2022-12-17T04:59:26.331Z,97724.25
2022-12-17T05:02:11.332Z,97728.66
2022-12-17T05:04:56.648Z,97727.78
2022-12-17T05:08:01.408Z,97738.28
2022-12-17T05:10:46.086Z,97738.34
2022-12-17T05:13:31.395Z,97741.56
2022-12-17T05:16:16.910Z,97744.22
2022-12-17T05:19:02.324Z,97748.31
2022-12-17T05:21:47.192Z,97751.88
2022-12-17T05:24:34.532Z,97751.31
2022-12-17T05:27:19.436Z,97764.88
2022-12-17T05:30:04.213Z,97768.22
2022-12-17T05:32:51.573Z,97771.59
2022-12-17T05:35:36.478Z,97775.25
2022-12-17T05:38:26.541Z,97784.69
2022-12-17T05:41:18.588Z,97790.03
2022-12-17T05:44:05.854Z,97798.28
2022-12-17T05:46:50.858Z,97804.47
2022-12-17T05:49:35.676Z,97807.97
2022-12-17T05:52:22.955Z,97812.06
2022-12-17T05:55:08.440Z,97819.00
2022-12-17T05:57:56.564Z,97812.97
2022-12-17T06:00:41.724Z,97809.66
2022-12-17T06:03:27.747Z,97814.09
2022-12-17T06:06:32.599Z,97821.72
2022-12-17T06:09:17.532Z,97839.63
2022-12-17T06:12:02.945Z,97833.78
2022-12-17T06:14:47.882Z,97833.91
2022-12-17T06:17:35.471Z,97843.31
2022-12-17T06:20:20.685Z,97847.38
2022-12-17T06:23:17.206Z,97842.28
2022-12-17T06:26:01.975Z,97840.06
2022-12-17T06:28:47.494Z,97841.69
2022-12-17T06:31:32.722Z,97843.22
2022-12-17T06:34:27.963Z,97856.91
2022-12-17T06:37:12.747Z,97844.31
2022-12-17T06:39:57.711Z,97854.66
2022-12-17T06:42:42.475Z,97863.63
2022-12-17T06:45:28.073Z,97861.84
2022-12-17T06:48:21.049Z,97870.19
2022-12-17T06:51:06.486Z,97870.88
2022-12-17T06:53:51.303Z,97873.50
2022-12-17T06:56:36.515Z,97880.97
2022-12-17T06:59:21.254Z,97893.75
2022-12-17T07:02:26.394Z,97896.50
2022-12-17T07:05:11.505Z,97904.22
2022-12-17T07:07:56.468Z,97910.88
2022-12-17T07:10:42.323Z,97907.47
2022-12-17T07:13:28.765Z,97914.25
2022-12-17T07:16:27.849Z,97916.84
2022-12-17T07:19:13.046Z,97918.47
2022-12-17T07:21:57.917Z,97910.72
2022-12-17T07:24:43.390Z,97917.38
2022-12-17T07:27:28.174Z,97916.53
2022-12-17T07:30:15.410Z,97920.78
2022-12-17T07:33:00.389Z,97936.09
2022-12-17T07:35:47.137Z,97941.31
2022-12-17T07:38:32.048Z,97943.81
2022-12-17T07:41:20.096Z,97936.09
2022-12-17T07:44:05.338Z,97954.91
2022-12-17T07:46:50.175Z,97953.97
2022-12-17T07:49:35.153Z,97960.75
2022-12-17T07:52:20.233Z,97963.44
2022-12-17T07:55:05.119Z,97964.97
2022-12-17T07:57:50.130Z,97966.00
2022-12-17T08:00:35.514Z,97964.06
2022-12-17T08:03:20.828Z,97968.41
2022-12-17T08:06:05.984Z,97970.00
2022-12-17T08:08:56.020Z,97971.59
2022-12-17T08:11:40.848Z,97979.34
2022-12-17T08:14:25.786Z,97979.28
2022-12-17T08:17:10.532Z,97987.81
2022-12-17T08:19:55.409Z,97993.78
2022-12-17T08:22:40.054Z,97993.63
2022-12-17T08:25:25.554Z,97987.53
2022-12-17T08:28:48.942Z,97995.22
2022-12-17T08:31:25.757Z,98002.00
2022-12-17T08:34:10.959Z,98005.44
2022-12-17T08:36:55.697Z,98015.47
2022-12-17T08:39:43.055Z,98014.75
2022-12-17T08:42:27.800Z,98011.41
2022-12-17T08:45:12.686Z,98019.59
2022-12-17T08:48:02.180Z,98017.03
2022-12-17T08:50:48.987Z,98007.63
2022-12-17T08:53:35.203Z,98013.16
2022-12-17T08:56:20.864Z,98022.50
2022-12-17T08:59:05.654Z,98021.00
2022-12-17T09:01:50.715Z,98016.72
2022-12-17T09:04:35.791Z,98020.25
2022-12-17T09:07:20.662Z,98030.13
2022-12-17T09:10:05.492Z,98033.41
2022-12-17T09:12:50.462Z,98036.78
2022-12-17T09:15:36.009Z,98040.41
2022-12-17T09:18:20.728Z,98039.09
2022-12-17T09:21:12.118Z,98046.72
2022-12-17T09:23:56.958Z,98050.91
2022-12-17T09:26:42.247Z,98051.66
2022-12-17T09:29:27.082Z,98053.00
2022-12-17T09:32:11.972Z,98054.38
2022-12-17T09:34:56.900Z,98055.13
2022-12-17T09:37:41.719Z,98066.78
2022-12-17T09:40:34.433Z,98066.53
2022-12-17T09:43:26.758Z,98072.75
2022-12-17T09:46:19.359Z,98075.00
2022-12-17T09:49:17.709Z,98070.56
2022-12-17T09:52:02.677Z,98073.66
2022-12-17T09:55:02.186Z,98076.47
2022-12-17T09:57:51.864Z,98071.72
2022-12-17T10:00:38.847Z,98075.13
2022-12-17T10:03:32.996Z,98076.78
2022-12-17T10:06:27.723Z,98088.97
2022-12-17T10:09:18.721Z,98090.34
2022-12-17T10:12:04.028Z,98091.97
2022-12-17T10:14:49.487Z,98093.69
2022-12-17T10:17:38.098Z,98097.44
2022-12-17T10:20:50.211Z,98102.53
2022-12-17T10:23:50.108Z,98107.13
2022-12-17T10:26:44.224Z,98109.31
2022-12-17T10:29:34.749Z,98113.97
2022-12-17T10:32:34.471Z,98117.34
2022-12-17T10:35:37.416Z,98108.91
2022-12-17T10:38:43.191Z,98112.16
2022-12-17T10:41:43.467Z,98111.94
2022-12-17T10:44:49.760Z,98109.94
2022-12-17T10:47:43.221Z,98114.63
2022-12-17T10:50:36.574Z,98115.25
2022-12-17T10:53:23.549Z,98123.13
2022-12-17T10:56:15.035Z,98129.47
2022-12-17T10:59:09.660Z,98124.84
2022-12-17T11:01:58.215Z,98119.75
2022-12-17T11:04:46.404Z,98124.03
2022-12-17T11:07:38.499Z,98128.06
2022-12-17T11:10:25.355Z,98119.41
2022-12-17T11:13:16.225Z,98126.16
2022-12-17T11:16:14.428Z,98132.94
2022-12-17T11:19:35.299Z,98132.66
2022-12-17T11:22:26.113Z,98135.41
2022-12-17T11:25:21.608Z,98133.41
2022-12-17T11:28:12.216Z,98137.78
2022-12-17T11:31:06.775Z,98137.78
2022-12-17T11:34:10.706Z,98148.59
2022-12-17T11:37:03.736Z,98148.22
2022-12-17T11:40:02.187Z,98157.72
2022-12-17T11:42:55.469Z,98160.88
2022-12-17T11:46:11.641Z,98168.94
2022-12-17T11:49:10.704Z,98167.69
2022-12-17T11:52:17.428Z,98173.78
2022-12-17T11:55:20.501Z,98166.78
2022-12-17T11:58:21.689Z,98170.97
2022-12-17T12:01:18.687Z,98171.75
2022-12-17T12:04:39.478Z,98170.88
2022-12-17T12:07:38.993Z,98172.38
2022-12-17T12:11:08.166Z,98161.97
2022-12-17T12:14:02.702Z,98167.97
2022-12-17T12:16:59.620Z,98165.97
2022-12-17T12:20:08.286Z,98174.78
2022-12-17T12:23:26.318Z,98166.09
2022-12-17T12:26:21.884Z,98154.09
2022-12-17T12:29:40.737Z,98148.25
2022-12-17T12:32:41.636Z,98148.44
2022-12-17T12:35:34.259Z,98162.31
2022-12-17T12:38:20.443Z,98163.13
2022-12-17T12:41:13.769Z,98158.03
2022-12-17T12:44:07.082Z,98153.69
2022-12-17T12:47:17.233Z,98155.94
2022-12-17T12:50:39.191Z,98151.69
2022-12-17T12:53:26.247Z,98152.59
2022-12-17T12:56:11.317Z,98166.41
2022-12-17T12:59:13.363Z,98163.97
2022-12-17T13:01:58.795Z,98161.06
2022-12-17T13:04:55.382Z,98167.38
2022-12-17T13:07:31.053Z,98165.59
2022-12-17T13:09:59.106Z,98172.19
2022-12-17T13:12:32.743Z,98167.63
2022-12-17T13:15:13.338Z,98173.72
2022-12-17T13:17:45.963Z,98170.47
2022-12-17T13:20:31.764Z,98174.03
2022-12-17T13:23:35.737Z,98174.97
2022-12-17T13:26:18.811Z,98185.31
2022-12-17T13:29:13.220Z,98186.69
2022-12-17T13:31:48.229Z,98195.69
2022-12-17T13:34:45.108Z,98196.38
2022-12-17T13:37:29.417Z,98198.91
2022-12-17T13:40:04.932Z,98198.00
2022-12-17T13:42:35.370Z,98203.59
2022-12-17T13:45:02.683Z,98201.56
2022-12-17T13:47:35.218Z,98215.69
2022-12-17T13:50:33.815Z,98206.19
2022-12-17T13:53:10.442Z,98220.19
2022-12-17T13:55:38.212Z,98212.59
2022-12-17T13:58:04.672Z,98221.25
2022-12-17T14:00:32.435Z,98226.22
2022-12-17T14:03:10.177Z,98221.31
2022-12-17T14:05:42.258Z,98230.00
2022-12-17T14:08:12.728Z,98224.81
2022-12-17T14:10:47.421Z,98228.22
2022-12-17T14:13:16.000Z,98231.47
2022-12-17T14:15:49.856Z,98227.38
2022-12-17T14:18:20.703Z,98237.91
2022-12-17T14:20:49.386Z,98236.91
2022-12-17T14:23:21.766Z,98241.34
2022-12-17T14:25:49.152Z,98240.53
2022-12-17T14:28:36.735Z,98253.31
2022-12-17T14:31:28.857Z,98246.44
2022-12-17T14:34:10.869Z,98248.41
2022-12-17T14:36:44.556Z,98253.47
2022-12-17T14:39:28.636Z,98250.66
2022-12-17T14:42:25.527Z,98254.88
2022-12-17T14:45:07.773Z,98264.56
2022-12-17T14:47:36.806Z,98264.72
2022-12-17T14:50:08.655Z,98268.78
2022-12-17T14:52:37.492Z,98263.78
2022-12-17T14:55:36.911Z,98269.81
2022-12-17T14:58:22.959Z,98264.59
2022-12-17T15:00:59.868Z,98265.44
2022-12-17T15:03:32.879Z,98271.63
2022-12-17T15:06:03.421Z,98274.22
2022-12-17T15:08:33.515Z,98274.19
2022-12-17T15:11:02.314Z,98281.06
2022-12-17T15:13:28.848Z,98275.94
2022-12-17T15:15:55.332Z,98293.13
2022-12-17T15:18:24.190Z,98299.19
2022-12-17T15:20:50.721Z,98302.66
2022-12-17T15:23:19.779Z,98306.06
2022-12-17T15:25:48.435Z,98318.94
2022-12-17T15:28:15.982Z,98307.94
2022-12-17T15:30:43.007Z,98310.47
2022-12-17T15:33:12.332Z,98315.50
2022-12-17T15:35:40.997Z,98310.41
2022-12-17T15:38:11.725Z,98322.31
2022-12-17T15:40:38.976Z,98310.44
2022-12-17T15:43:11.515Z,98313.88
2022-12-17T15:45:43.575Z,98321.44
2022-12-17T15:48:11.306Z,98319.75
2022-12-17T15:50:37.994Z,98330.13
2022-12-17T15:53:06.753Z,98331.81
2022-12-17T15:55:33.641Z,98328.47
2022-12-17T15:58:00.096Z,98325.94
2022-12-17T16:00:26.687Z,98338.72
2022-12-17T16:02:53.573Z,98339.56
2022-12-17T16:05:20.912Z,98337.91
2022-12-17T16:07:47.633Z,98338.72
2022-12-17T16:10:16.506Z,98346.41
2022-12-17T16:12:43.236Z,98349.81
2022-12-17T16:15:11.724Z,98350.66
2022-12-17T16:17:38.528Z,98348.91
2022-12-17T16:20:06.020Z,98352.34
2022-12-17T16:22:32.819Z,98358.28
2022-12-17T16:24:59.304Z,98358.31
2022-12-17T16:27:25.995Z,98355.75
2022-12-17T16:29:52.493Z,98358.34
2022-12-17T16:32:21.289Z,98365.16
2022-12-17T16:34:47.733Z,98357.47
2022-12-17T16:37:14.239Z,98363.41
2022-12-17T16:39:40.683Z,98366.81
2022-12-17T16:42:09.865Z,98357.50
2022-12-17T16:44:36.347Z,98375.31
2022-12-17T16:47:03.071Z,98373.59
2022-12-17T16:49:29.630Z,98370.22
2022-12-17T16:51:57.883Z,98364.28
2022-12-17T16:54:27.104Z,98374.47
2022-12-17T16:56:56.535Z,98372.78
2022-12-17T16:59:23.673Z,98365.09
2022-12-17T17:01:52.189Z,98363.41
2022-12-17T17:04:24.073Z,98370.22
2022-12-17T17:06:53.615Z,98369.38
2022-12-17T17:09:21.065Z,98372.75
2022-12-17T17:11:52.083Z,98377.00
2022-12-17T17:14:19.178Z,98368.47
2022-12-17T17:16:45.804Z,98367.63
2022-12-17T17:19:12.287Z,98373.56
2022-12-17T17:21:41.022Z,98378.69
2022-12-17T17:24:20.001Z,98378.69
2022-12-17T17:26:48.099Z,98382.09
2022-12-17T17:29:14.673Z,98383.66
2022-12-17T17:34:27.646Z,98392.22
2022-12-17T17:36:54.123Z,98383.72
2022-12-17T17:39:23.094Z,98390.50
2022-12-17T17:41:49.590Z,98385.41
2022-12-17T17:44:16.589Z,98397.25
2022-12-17T17:46:43.248Z,98399.03
2022-12-17T17:49:10.564Z,98396.50
2022-12-17T17:54:27.727Z,98394.78
2022-12-17T17:56:54.215Z,98399.88
2022-12-17T17:59:20.728Z,98395.59
2022-12-17T18:01:51.899Z,98394.72
2022-12-17T18:04:21.304Z,98398.19
2022-12-17T18:07:23.102Z,98405.84
2022-12-17T18:09:35.210Z,98399.03
2022-12-17T18:12:24.629Z,98402.44
2022-12-17T18:15:13.809Z,98404.94
2022-12-17T18:17:37.601Z,98410.84
2022-12-17T18:20:07.182Z,98408.25
2022-12-17T18:22:33.670Z,98411.66
2022-12-17T18:25:00.171Z,98418.47
2022-12-17T18:27:26.685Z,98426.09
2022-12-17T18:29:53.137Z,98421.00
2022-12-17T18:32:22.435Z,98419.28
2022-12-17T18:34:48.929Z,98422.66
2022-12-17T18:37:15.489Z,98427.84
2022-12-17T18:39:41.955Z,98429.56
2022-12-17T18:42:27.505Z,98429.50
2022-12-17T18:44:53.955Z,98444.81
2022-12-17T18:47:20.621Z,98445.69
2022-12-17T18:49:47.173Z,98441.38
2022-12-17T18:52:16.955Z,98443.88
2022-12-17T18:54:44.831Z,98448.97
2022-12-17T18:57:11.456Z,98455.78
2022-12-17T18:59:38.501Z,98455.78
2022-12-17T19:02:05.337Z,98456.66
2022-12-17T19:04:33.028Z,98460.03
2022-12-17T19:06:59.845Z,98464.25
2022-12-17T19:09:35.510Z,98464.22
2022-12-17T19:12:04.103Z,98465.94
2022-12-17T19:14:30.598Z,98466.81
2022-12-17T19:16:57.978Z,98467.63
2022-12-17T19:19:28.947Z,98459.19
2022-12-17T19:21:56.247Z,98466.69
2022-12-17T19:24:23.384Z,98470.97
2022-12-17T19:26:50.959Z,98469.25
2022-12-17T19:29:19.016Z,98473.63
2022-12-17T19:31:46.342Z,98466.81
2022-12-17T19:34:16.580Z,98475.34
2022-12-17T19:36:44.240Z,98470.22
2022-12-17T19:39:13.122Z,98474.47
2022-12-17T19:41:40.156Z,98473.53
2022-12-17T19:44:08.850Z,98471.00
2022-12-17T19:46:36.173Z,98471.84
2022-12-17T19:49:03.752Z,98474.53
2022-12-17T19:51:31.994Z,98472.00
2022-12-17T19:54:06.192Z,98469.34
2022-12-17T19:56:34.928Z,98474.38
2022-12-17T19:59:04.211Z,98482.13
2022-12-17T20:01:40.997Z,98492.31
2022-12-17T20:04:12.088Z,98482.06
2022-12-17T20:06:38.684Z,98481.22
2022-12-17T20:09:06.389Z,98481.16
2022-12-17T20:11:36.456Z,98482.91
2022-12-17T20:14:26.438Z,98493.09
2022-12-17T20:16:57.170Z,98487.13
2022-12-17T20:19:31.091Z,98494.88
2022-12-17T20:21:59.653Z,98492.28
2022-12-17T20:24:31.078Z,98495.69
2022-12-17T20:26:58.510Z,98484.56
2022-12-17T20:29:25.329Z,98483.75
2022-12-17T20:31:53.379Z,98483.72
2022-12-17T20:34:24.415Z,98485.41
2022-12-17T20:36:52.168Z,98487.25
2022-12-17T20:39:26.642Z,98493.13
2022-12-17T20:41:56.984Z,98496.47
2022-12-17T20:44:26.321Z,98496.53
2022-12-17T20:46:53.230Z,98497.44
2022-12-17T20:49:20.138Z,98500.06
2022-12-17T20:51:46.867Z,98505.19
2022-12-17T20:54:13.444Z,98504.25
2022-12-17T20:56:42.479Z,98507.66
2022-12-17T20:59:14.085Z,98521.31
2022-12-17T21:01:43.449Z,98517.84
2022-12-17T21:04:12.403Z,98527.22
2022-12-17T21:06:49.809Z,98523.84
2022-12-17T21:09:18.610Z,98526.34
2022-12-17T21:11:45.181Z,98518.69
2022-12-17T21:14:14.579Z,98521.22
2022-12-17T21:16:43.048Z,98525.56
2022-12-17T21:19:13.114Z,98516.16
2022-12-17T21:21:39.763Z,98521.25
2022-12-17T21:24:08.167Z,98517.84
2022-12-17T21:26:39.731Z,98518.69
2022-12-17T21:29:08.086Z,98523.81
2022-12-17T21:31:38.876Z,98533.19
2022-12-17T21:34:10.846Z,98525.56
2022-12-17T21:36:37.609Z,98528.97
2022-12-17T21:39:09.019Z,98534.88
2022-12-17T21:41:43.376Z,98539.19
2022-12-17T21:44:15.137Z,98535.72
2022-12-17T21:46:42.869Z,98533.22
2022-12-17T21:49:10.516Z,98531.56
2022-12-17T21:51:37.739Z,98531.53
2022-12-17T21:54:09.023Z,98540.94
2022-12-17T21:56:36.838Z,98542.63
2022-12-17T21:59:04.188Z,98541.75
2022-12-17T22:01:33.622Z,98544.25
2022-12-17T22:04:02.655Z,98545.13
2022-12-17T22:06:36.369Z,98543.41
2022-12-17T22:09:18.014Z,98545.13
2022-12-17T22:12:14.127Z,98545.16
2022-12-17T22:14:43.389Z,98544.31
2022-12-17T22:17:10.025Z,98532.34
2022-12-17T22:19:36.749Z,98533.16
2022-12-17T22:22:03.559Z,98535.75
2022-12-17T22:24:36.455Z,98539.19
2022-12-17T22:27:03.895Z,98543.50
2022-12-17T22:29:53.663Z,98542.63
2022-12-17T22:32:38.959Z,98555.41
2022-12-17T22:36:16.663Z,98549.41
2022-12-17T22:41:02.868Z,98549.47
2022-12-17T22:42:03.345Z,98551.22
2022-12-17T22:44:51.320Z,98556.31
2022-12-17T22:46:19.012Z,98556.28
2022-12-17T22:48:45.667Z,98551.22
2022-12-17T22:51:13.434Z,98555.47
2022-12-17T22:53:54.223Z,98558.94
2022-12-17T22:56:58.465Z,98552.94
2022-12-17T22:59:10.248Z,98547.00
2022-12-17T23:01:36.951Z,98545.25
2022-12-17T23:04:06.063Z,98550.31
2022-12-17T23:06:35.191Z,98556.28
2022-12-17T23:09:01.765Z,98560.56
2022-12-17T23:11:29.026Z,98558.88
2022-12-17T23:13:56.169Z,98563.16
2022-12-17T23:16:23.069Z,98549.47
2022-12-17T23:18:51.279Z,98563.13
2022-12-17T23:21:25.696Z,98558.81
2022-12-17T23:23:53.940Z,98566.53
2022-12-17T23:26:23.969Z,98569.03
2022-12-17T23:28:57.217Z,98575.91
2022-12-17T23:31:27.117Z,98565.69
2022-12-17T23:33:56.450Z,98566.50
2022-12-17T23:36:24.922Z,98554.56
2022-12-17T23:38:56.507Z,98556.34
2022-12-17T23:41:26.953Z,98568.28
2022-12-17T23:43:55.111Z,98557.97
2022-12-17T23:46:23.794Z,98563.13
2022-12-17T23:48:51.032Z,98565.72
2022-12-17T23:51:20.327Z,98560.56
2022-12-17T23:53:47.309Z,98570.84
2022-12-17T23:56:18.992Z,98564.03
2022-12-17T23:58:46.640Z,98563.97
